sensor_id;sensor_type;location;lat;lon;timestamp;pressure;altitude;pressure_sealevel;temperature;humidity
4590;BME280;2307;48.448;9.216;2023-08-20T00:01:07;95802.50;;;23.84;100.00
4590;BME280;2307;48.448;9.216;2023-08-20T00:03:35;95807.31;;;23.95;100.00
4590;BME280;2307;48.448;9.216;2023-08-20T00:06:02;95812.53;;;24.14;100.00
4590;BME280;2307;48.448;9.216;2023-08-20T00:08:29;95807.81;;;23.97;100.00
4590;BME280;2307;48.448;9.216;2023-08-20T00:10:56;95808.94;;;23.74;100.00
4590;BME280;2307;48.448;9.216;2023-08-20T00:13:23;95800.91;;;23.60;100.00
4590;BME280;2307;48.448;9.216;2023-08-20T00:15:49;95805.31;;;23.56;100.00
4590;BME280;2307;48.448;9.216;2023-08-20T00:18:16;95803.84;;;23.50;100.00
4590;BME280;2307;48.448;9.216;2023-08-20T00:20:43;95796.31;;;23.61;100.00
4590;BME280;2307;48.448;9.216;2023-08-20T00:23:10;95808.00;;;23.78;100.00
4590;BME280;2307;48.448;9.216;2023-08-20T00:25:39;95814.19;;;23.79;100.00
4590;BME280;2307;48.448;9.216;2023-08-20T00:28:07;95812.97;;;23.85;100.00
4590;BME280;2307;48.448;9.216;2023-08-20T00:30:33;95811.16;;;23.72;100.00
4590;BME280;2307;48.448;9.216;2023-08-20T00:32:59;95809.31;;;23.59;100.00
4590;BME280;2307;48.448;9.216;2023-08-20T00:35:26;95808.34;;;23.55;100.00
4590;BME280;2307;48.448;9.216;2023-08-20T00:37:53;95815.00;;;23.57;100.00
4590;BME280;2307;48.448;9.216;2023-08-20T00:40:19;95811.09;;;23.63;100.00
4590;BME280;2307;48.448;9.216;2023-08-20T00:42:45;95814.03;;;23.75;100.00
4590;BME280;2307;48.448;9.216;2023-08-20T00:45:13;95809.19;;;23.64;100.00
4590;BME280;2307;48.448;9.216;2023-08-20T00:47:41;95815.75;;;23.49;100.00
4590;BME280;2307;48.448;9.216;2023-08-20T00:50:08;95812.38;;;23.44;100.00
4590;BME280;2307;48.448;9.216;2023-08-20T00:52:35;95816.78;;;23.40;100.00
4590;BME280;2307;48.448;9.216;2023-08-20T00:55:02;95815.56;;;23.46;100.00
4590;BME280;2307;48.448;9.216;2023-08-20T00:57:33;95823.91;;;23.58;100.00
4590;BME280;2307;48.448;9.216;2023-08-20T01:00:00;95816.28;;;23.60;100.00
4590;BME280;2307;48.448;9.216;2023-08-20T01:02:33;95809.06;;;23.47;100.00
4590;BME280;2307;48.448;9.216;2023-08-20T01:04:59;95808.56;;;23.45;100.00
4590;BME280;2307;48.448;9.216;2023-08-20T01:07:27;95814.28;;;23.43;100.00
4590;BME280;2307;48.448;9.216;2023-08-20T01:09:57;95806.97;;;23.44;100.00
4590;BME280;2307;48.448;9.216;2023-08-20T01:12:29;95805.41;;;23.43;100.00
4590;BME280;2307;48.448;9.216;2023-08-20T01:14:57;95803.06;;;23.50;100.00
4590;BME280;2307;48.448;9.216;2023-08-20T01:17:24;95814.94;;;23.49;100.00
4590;BME280;2307;48.448;9.216;2023-08-20T01:19:52;95817.47;;;23.45;100.00
4590;BME280;2307;48.448;9.216;2023-08-20T01:22:21;95812.44;;;23.16;100.00
4590;BME280;2307;48.448;9.216;2023-08-20T01:24:54;95815.47;;;23.01;100.00
4590;BME280;2307;48.448;9.216;2023-08-20T01:27:31;95820.66;;;22.98;100.00
4590;BME280;2307;48.448;9.216;2023-08-20T01:30:05;95819.47;;;22.90;100.00
4590;BME280;2307;48.448;9.216;2023-08-20T01:32:32;95818.88;;;22.93;100.00
4590;BME280;2307;48.448;9.216;2023-08-20T01:34:59;95821.47;;;22.98;100.00
4590;BME280;2307;48.448;9.216;2023-08-20T01:37:25;95820.66;;;23.11;100.00
4590;BME280;2307;48.448;9.216;2023-08-20T01:39:52;95825.44;;;23.14;100.00
4590;BME280;2307;48.448;9.216;2023-08-20T01:42:18;95824.69;;;23.22;100.00
4590;BME280;2307;48.448;9.216;2023-08-20T01:44:44;95830.41;;;23.21;100.00
4590;BME280;2307;48.448;9.216;2023-08-20T01:47:12;95822.13;;;23.17;100.00
4590;BME280;2307;48.448;9.216;2023-08-20T01:49:38;95825.19;;;23.24;100.00
4590;BME280;2307;48.448;9.216;2023-08-20T01:52:05;95828.31;;;23.18;100.00
4590;BME280;2307;48.448;9.216;2023-08-20T01:54:31;95826.84;;;22.98;100.00
4590;BME280;2307;48.448;9.216;2023-08-20T01:56:58;95824.38;;;22.88;100.00
4590;BME280;2307;48.448;9.216;2023-08-20T01:59:24;95825.59;;;22.68;100.00
4590;BME280;2307;48.448;9.216;2023-08-20T02:01:50;95827.25;;;22.64;100.00
4590;BME280;2307;48.448;9.216;2023-08-20T02:04:18;95823.91;;;22.72;100.00
4590;BME280;2307;48.448;9.216;2023-08-20T02:06:44;95823.28;;;22.89;100.00
4590;BME280;2307;48.448;9.216;2023-08-20T02:09:11;95822.38;;;22.80;100.00
4590;BME280;2307;48.448;9.216;2023-08-20T02:11:37;95829.44;;;22.62;100.00
4590;BME280;2307;48.448;9.216;2023-08-20T02:14:04;95825.66;;;22.77;100.00
4590;BME280;2307;48.448;9.216;2023-08-20T02:16:30;95826.06;;;22.84;100.00
4590;BME280;2307;48.448;9.216;2023-08-20T02:18:56;95825.50;;;22.73;100.00
4590;BME280;2307;48.448;9.216;2023-08-20T02:21:24;95824.84;;;22.49;100.00
4590;BME280;2307;48.448;9.216;2023-08-20T02:23:50;95818.78;;;22.44;100.00
4590;BME280;2307;48.448;9.216;2023-08-20T02:26:17;95831.44;;;22.43;100.00
4590;BME280;2307;48.448;9.216;2023-08-20T02:28:43;95821.75;;;22.42;100.00
4590;BME280;2307;48.448;9.216;2023-08-20T02:31:10;95821.09;;;22.50;100.00
4590;BME280;2307;48.448;9.216;2023-08-20T02:33:36;95827.19;;;22.69;100.00
4590;BME280;2307;48.448;9.216;2023-08-20T02:36:03;95829.75;;;22.74;100.00
4590;BME280;2307;48.448;9.216;2023-08-20T02:38:30;95824.06;;;22.62;100.00
4590;BME280;2307;48.448;9.216;2023-08-20T02:40:57;95822.47;;;22.48;100.00
4590;BME280;2307;48.448;9.216;2023-08-20T02:43:23;95826.44;;;22.37;100.00
4590;BME280;2307;48.448;9.216;2023-08-20T02:45:50;95827.44;;;22.27;100.00
4590;BME280;2307;48.448;9.216;2023-08-20T02:48:17;95830.72;;;22.24;100.00
4590;BME280;2307;48.448;9.216;2023-08-20T02:50:43;95826.63;;;22.27;100.00
4590;BME280;2307;48.448;9.216;2023-08-20T02:53:10;95829.06;;;22.28;100.00
4590;BME280;2307;48.448;9.216;2023-08-20T02:55:37;95830.31;;;22.17;100.00
4590;BME280;2307;48.448;9.216;2023-08-20T02:58:04;95830.63;;;22.15;100.00
4590;BME280;2307;48.448;9.216;2023-08-20T03:00:32;95833.84;;;22.31;100.00
4590;BME280;2307;48.448;9.216;2023-08-20T03:02:59;95834.94;;;22.44;100.00
4590;BME280;2307;48.448;9.216;2023-08-20T03:05:26;95836.22;;;22.33;100.00
4590;BME280;2307;48.448;9.216;2023-08-20T03:07:52;95830.25;;;22.22;100.00
4590;BME280;2307;48.448;9.216;2023-08-20T03:10:19;95825.13;;;22.20;100.00
4590;BME280;2307;48.448;9.216;2023-08-20T03:12:46;95835.22;;;22.15;100.00
4590;BME280;2307;48.448;9.216;2023-08-20T03:15:13;95827.25;;;22.10;100.00
4590;BME280;2307;48.448;9.216;2023-08-20T03:17:39;95831.72;;;22.14;100.00
4590;BME280;2307;48.448;9.216;2023-08-20T03:20:06;95836.19;;;22.05;100.00
4590;BME280;2307;48.448;9.216;2023-08-20T03:22:33;95828.59;;;22.07;100.00
4590;BME280;2307;48.448;9.216;2023-08-20T03:24:59;95834.81;;;22.21;100.00
4590;BME280;2307;48.448;9.216;2023-08-20T03:27:26;95835.84;;;22.26;100.00
4590;BME280;2307;48.448;9.216;2023-08-20T03:29:53;95836.91;;;22.24;100.00
4590;BME280;2307;48.448;9.216;2023-08-20T03:32:20;95836.00;;;22.15;100.00
4590;BME280;2307;48.448;9.216;2023-08-20T03:34:46;95834.38;;;22.01;100.00
4590;BME280;2307;48.448;9.216;2023-08-20T03:37:13;95819.63;;;21.98;100.00
4590;BME280;2307;48.448;9.216;2023-08-20T03:39:39;95815.84;;;21.99;100.00
4590;BME280;2307;48.448;9.216;2023-08-20T03:42:05;95809.47;;;21.95;100.00
4590;BME280;2307;48.448;9.216;2023-08-20T03:44:32;95812.66;;;21.97;100.00
4590;BME280;2307;48.448;9.216;2023-08-20T03:46:59;95814.25;;;21.98;100.00
4590;BME280;2307;48.448;9.216;2023-08-20T03:49:26;95810.72;;;22.16;100.00
4590;BME280;2307;48.448;9.216;2023-08-20T03:51:52;95812.69;;;22.24;100.00
4590;BME280;2307;48.448;9.216;2023-08-20T03:54:18;95804.72;;;22.19;100.00
4590;BME280;2307;48.448;9.216;2023-08-20T03:56:45;95815.09;;;22.26;100.00
4590;BME280;2307;48.448;9.216;2023-08-20T03:59:11;95818.47;;;22.18;100.00
4590;BME280;2307;48.448;9.216;2023-08-20T04:01:38;95823.75;;;22.09;100.00
4590;BME280;2307;48.448;9.216;2023-08-20T04:04:06;95826.53;;;22.18;100.00
4590;BME280;2307;48.448;9.216;2023-08-20T04:06:32;95831.56;;;21.92;100.00
4590;BME280;2307;48.448;9.216;2023-08-20T04:08:59;95827.47;;;21.62;100.00
4590;BME280;2307;48.448;9.216;2023-08-20T04:11:25;95829.44;;;21.57;100.00
4590;BME280;2307;48.448;9.216;2023-08-20T04:13:51;95833.13;;;21.61;100.00
4590;BME280;2307;48.448;9.216;2023-08-20T04:16:18;95832.34;;;21.60;100.00
4590;BME280;2307;48.448;9.216;2023-08-20T04:18:45;95824.59;;;21.59;100.00
4590;BME280;2307;48.448;9.216;2023-08-20T04:21:12;95829.59;;;21.79;100.00
4590;BME280;2307;48.448;9.216;2023-08-20T04:23:39;95816.47;;;21.78;100.00
4590;BME280;2307;48.448;9.216;2023-08-20T04:26:06;95810.97;;;21.69;100.00
4590;BME280;2307;48.448;9.216;2023-08-20T04:28:32;95807.88;;;21.62;100.00
4590;BME280;2307;48.448;9.216;2023-08-20T04:30:59;95798.50;;;21.59;100.00
4590;BME280;2307;48.448;9.216;2023-08-20T04:33:25;95789.31;;;21.60;100.00
4590;BME280;2307;48.448;9.216;2023-08-20T04:35:52;95782.97;;;21.70;100.00
4590;BME280;2307;48.448;9.216;2023-08-20T04:38:20;95779.72;;;21.87;100.00
4590;BME280;2307;48.448;9.216;2023-08-20T04:40:46;95784.97;;;21.97;100.00
4590;BME280;2307;48.448;9.216;2023-08-20T04:43:13;95795.63;;;22.02;100.00
4590;BME280;2307;48.448;9.216;2023-08-20T04:45:40;95795.63;;;22.02;100.00
4590;BME280;2307;48.448;9.216;2023-08-20T04:48:06;95808.19;;;22.06;100.00
4590;BME280;2307;48.448;9.216;2023-08-20T04:50:32;95814.38;;;21.88;100.00
4590;BME280;2307;48.448;9.216;2023-08-20T04:52:59;95825.94;;;21.75;100.00
4590;BME280;2307;48.448;9.216;2023-08-20T04:55:27;95816.22;;;21.60;100.00
4590;BME280;2307;48.448;9.216;2023-08-20T04:57:53;95825.94;;;21.75;100.00
4590;BME280;2307;48.448;9.216;2023-08-20T05:00:20;95832.81;;;21.81;100.00
4590;BME280;2307;48.448;9.216;2023-08-20T05:02:47;95833.19;;;21.75;100.00
4590;BME280;2307;48.448;9.216;2023-08-20T05:05:14;95834.22;;;21.60;100.00
4590;BME280;2307;48.448;9.216;2023-08-20T05:07:40;95840.63;;;21.64;100.00
4590;BME280;2307;48.448;9.216;2023-08-20T05:10:07;95847.59;;;21.65;100.00
4590;BME280;2307;48.448;9.216;2023-08-20T05:12:35;95855.50;;;21.75;100.00
4590;BME280;2307;48.448;9.216;2023-08-20T05:15:02;95873.91;;;21.68;100.00
4590;BME280;2307;48.448;9.216;2023-08-20T05:17:28;95879.06;;;21.46;100.00
4590;BME280;2307;48.448;9.216;2023-08-20T05:19:54;95883.22;;;21.38;100.00
4590;BME280;2307;48.448;9.216;2023-08-20T05:22:21;95881.09;;;21.35;100.00
4590;BME280;2307;48.448;9.216;2023-08-20T05:24:47;95867.97;;;21.34;100.00
4590;BME280;2307;48.448;9.216;2023-08-20T05:27:14;95869.19;;;21.41;100.00
4590;BME280;2307;48.448;9.216;2023-08-20T05:29:43;95856.41;;;21.52;100.00
4590;BME280;2307;48.448;9.216;2023-08-20T05:32:09;95852.81;;;21.75;100.00
4590;BME280;2307;48.448;9.216;2023-08-20T05:34:36;95857.41;;;21.88;100.00
4590;BME280;2307;48.448;9.216;2023-08-20T05:37:02;95851.28;;;21.88;100.00
4590;BME280;2307;48.448;9.216;2023-08-20T05:39:29;95839.16;;;21.90;100.00
4590;BME280;2307;48.448;9.216;2023-08-20T05:41:56;95840.56;;;22.01;100.00
4590;BME280;2307;48.448;9.216;2023-08-20T05:44:22;95829.63;;;22.11;100.00
4590;BME280;2307;48.448;9.216;2023-08-20T05:46:50;95823.22;;;22.07;100.00
4590;BME280;2307;48.448;9.216;2023-08-20T05:49:16;95820.16;;;22.00;100.00
4590;BME280;2307;48.448;9.216;2023-08-20T05:51:43;95826.22;;;22.06;100.00
4590;BME280;2307;48.448;9.216;2023-08-20T05:54:10;95826.94;;;22.11;100.00
4590;BME280;2307;48.448;9.216;2023-08-20T05:56:36;95835.31;;;22.23;100.00
4590;BME280;2307;48.448;9.216;2023-08-20T05:59:03;95842.28;;;22.24;100.00
4590;BME280;2307;48.448;9.216;2023-08-20T06:01:29;95854.53;;;22.17;100.00
4590;BME280;2307;48.448;9.216;2023-08-20T06:03:57;95851.16;;;22.11;100.00
4590;BME280;2307;48.448;9.216;2023-08-20T06:06:24;95853.44;;;21.86;100.00
4590;BME280;2307;48.448;9.216;2023-08-20T06:08:51;95857.88;;;21.95;100.00
4590;BME280;2307;48.448;9.216;2023-08-20T06:11:17;95865.38;;;21.80;100.00
4590;BME280;2307;48.448;9.216;2023-08-20T06:13:43;95871.50;;;21.66;100.00
4590;BME280;2307;48.448;9.216;2023-08-20T06:16:10;95870.69;;;21.66;100.00
4590;BME280;2307;48.448;9.216;2023-08-20T06:18:36;95870.91;;;21.69;100.00
4590;BME280;2307;48.448;9.216;2023-08-20T06:21:04;95878.97;;;21.69;100.00
4590;BME280;2307;48.448;9.216;2023-08-20T06:23:30;95874.53;;;21.60;100.00
4590;BME280;2307;48.448;9.216;2023-08-20T06:25:57;95883.56;;;21.69;100.00
4590;BME280;2307;48.448;9.216;2023-08-20T06:28:23;95888.66;;;21.70;100.00
4590;BME280;2307;48.448;9.216;2023-08-20T06:30:50;95891.63;;;21.69;100.00
4590;BME280;2307;48.448;9.216;2023-08-20T06:33:16;95888.38;;;21.72;100.00
4590;BME280;2307;48.448;9.216;2023-08-20T06:35:42;95891.97;;;21.81;100.00
4590;BME280;2307;48.448;9.216;2023-08-20T06:38:10;95893.22;;;21.89;100.00
4590;BME280;2307;48.448;9.216;2023-08-20T06:40:36;95895.75;;;21.99;100.00
4590;BME280;2307;48.448;9.216;2023-08-20T06:43:03;95895.78;;;22.12;100.00
4590;BME280;2307;48.448;9.216;2023-08-20T06:45:29;95889.94;;;22.24;100.00
4590;BME280;2307;48.448;9.216;2023-08-20T06:50:22;95896.75;;;22.35;100.00
4590;BME280;2307;48.448;9.216;2023-08-20T06:52:49;95898.16;;;22.46;100.00
4590;BME280;2307;48.448;9.216;2023-08-20T06:55:16;95892.47;;;22.61;100.00
4590;BME280;2307;48.448;9.216;2023-08-20T06:57:43;95904.03;;;22.62;100.00
4590;BME280;2307;48.448;9.216;2023-08-20T07:00:09;95903.41;;;22.70;100.00
4590;BME280;2307;48.448;9.216;2023-08-20T07:02:36;95906.47;;;22.91;100.00
4590;BME280;2307;48.448;9.216;2023-08-20T07:05:02;95901.69;;;23.01;100.00
4590;BME280;2307;48.448;9.216;2023-08-20T07:07:29;95904.69;;;23.00;100.00
4590;BME280;2307;48.448;9.216;2023-08-20T07:09:55;95904.38;;;23.01;100.00
4590;BME280;2307;48.448;9.216;2023-08-20T07:12:23;95907.47;;;23.08;100.00
4590;BME280;2307;48.448;9.216;2023-08-20T07:14:49;95914.38;;;23.14;100.00
4590;BME280;2307;48.448;9.216;2023-08-20T07:17:15;95913.44;;;23.19;100.00
4590;BME280;2307;48.448;9.216;2023-08-20T07:19:42;95916.31;;;23.36;100.00
4590;BME280;2307;48.448;9.216;2023-08-20T07:22:08;95910.94;;;23.36;100.00
4590;BME280;2307;48.448;9.216;2023-08-20T07:24:35;95914.34;;;23.42;100.00
4590;BME280;2307;48.448;9.216;2023-08-20T07:27:01;95918.63;;;23.43;100.00
4590;BME280;2307;48.448;9.216;2023-08-20T07:29:30;95919.81;;;23.50;100.00
4590;BME280;2307;48.448;9.216;2023-08-20T07:31:55;95923.81;;;23.53;100.00
4590;BME280;2307;48.448;9.216;2023-08-20T07:34:22;95923.19;;;23.56;100.00
4590;BME280;2307;48.448;9.216;2023-08-20T07:36:48;95924.06;;;23.65;100.00
4590;BME280;2307;48.448;9.216;2023-08-20T07:39:14;95927.72;;;23.69;100.00
4590;BME280;2307;48.448;9.216;2023-08-20T07:41:41;95926.53;;;23.75;100.00
4590;BME280;2307;48.448;9.216;2023-08-20T07:44:08;95928.03;;;23.81;100.00
4590;BME280;2307;48.448;9.216;2023-08-20T07:46:35;95938.56;;;23.91;100.00
4590;BME280;2307;48.448;9.216;2023-08-20T07:49:02;95935.28;;;23.94;100.00
4590;BME280;2307;48.448;9.216;2023-08-20T07:51:28;95933.84;;;23.97;100.00
4590;BME280;2307;48.448;9.216;2023-08-20T07:53:55;95936.56;;;23.97;100.00
4590;BME280;2307;48.448;9.216;2023-08-20T07:56:23;95936.41;;;24.02;100.00
4590;BME280;2307;48.448;9.216;2023-08-20T07:58:49;95938.03;;;24.03;100.00
4590;BME280;2307;48.448;9.216;2023-08-20T08:01:16;95946.00;;;24.08;100.00
4590;BME280;2307;48.448;9.216;2023-08-20T08:03:44;95943.22;;;24.13;100.00
4590;BME280;2307;48.448;9.216;2023-08-20T08:06:10;95952.16;;;24.22;100.00
4590;BME280;2307;48.448;9.216;2023-08-20T08:08:37;95962.03;;;24.26;100.00
4590;BME280;2307;48.448;9.216;2023-08-20T08:11:04;95954.53;;;24.23;100.00
4590;BME280;2307;48.448;9.216;2023-08-20T08:13:30;95961.69;;;24.19;100.00
4590;BME280;2307;48.448;9.216;2023-08-20T08:15:56;95962.88;;;24.36;100.00
4590;BME280;2307;48.448;9.216;2023-08-20T08:18:23;95961.41;;;24.29;100.00
4590;BME280;2307;48.448;9.216;2023-08-20T08:20:51;95968.75;;;24.29;100.00
4590;BME280;2307;48.448;9.216;2023-08-20T08:23:17;95971.91;;;24.31;100.00
4590;BME280;2307;48.448;9.216;2023-08-20T08:25:43;95967.69;;;24.39;100.00
4590;BME280;2307;48.448;9.216;2023-08-20T08:28:10;95961.13;;;24.31;100.00
4590;BME280;2307;48.448;9.216;2023-08-20T08:30:36;95976.28;;;24.41;100.00
4590;BME280;2307;48.448;9.216;2023-08-20T08:33:03;95969.16;;;24.45;100.00
4590;BME280;2307;48.448;9.216;2023-08-20T08:35:30;95970.97;;;24.58;100.00
4590;BME280;2307;48.448;9.216;2023-08-20T08:37:57;95974.03;;;24.65;100.00
4590;BME280;2307;48.448;9.216;2023-08-20T08:40:25;95973.91;;;24.70;100.00
4590;BME280;2307;48.448;9.216;2023-08-20T08:42:54;95966.91;;;24.69;100.00
4590;BME280;2307;48.448;9.216;2023-08-20T08:45:20;95979.66;;;24.77;100.00
4590;BME280;2307;48.448;9.216;2023-08-20T08:47:49;95971.47;;;24.82;100.00
4590;BME280;2307;48.448;9.216;2023-08-20T08:50:15;95978.00;;;24.90;100.00
4590;BME280;2307;48.448;9.216;2023-08-20T08:52:42;95971.66;;;24.94;100.00
4590;BME280;2307;48.448;9.216;2023-08-20T08:55:10;95977.53;;;24.96;100.00
4590;BME280;2307;48.448;9.216;2023-08-20T08:57:36;95983.13;;;25.00;100.00
4590;BME280;2307;48.448;9.216;2023-08-20T09:00:07;95989.06;;;25.10;100.00
4590;BME280;2307;48.448;9.216;2023-08-20T09:02:34;95982.50;;;25.03;100.00
4590;BME280;2307;48.448;9.216;2023-08-20T09:05:04;95982.06;;;25.09;100.00
4590;BME280;2307;48.448;9.216;2023-08-20T09:07:31;95980.19;;;25.18;100.00
4590;BME280;2307;48.448;9.216;2023-08-20T09:09:58;95978.16;;;25.24;100.00
4590;BME280;2307;48.448;9.216;2023-08-20T09:12:26;95974.66;;;25.32;100.00
4590;BME280;2307;48.448;9.216;2023-08-20T09:14:53;95982.03;;;25.40;100.00
4590;BME280;2307;48.448;9.216;2023-08-20T09:17:24;95978.00;;;25.37;100.00
4590;BME280;2307;48.448;9.216;2023-08-20T09:19:50;95978.22;;;25.50;100.00
4590;BME280;2307;48.448;9.216;2023-08-20T09:22:17;95973.78;;;25.54;100.00
4590;BME280;2307;48.448;9.216;2023-08-20T09:24:44;95978.56;;;25.57;100.00
4590;BME280;2307;48.448;9.216;2023-08-20T09:27:11;95968.41;;;25.62;100.00
4590;BME280;2307;48.448;9.216;2023-08-20T09:29:44;95975.41;;;25.72;100.00
4590;BME280;2307;48.448;9.216;2023-08-20T09:32:13;95979.09;;;25.84;100.00
4590;BME280;2307;48.448;9.216;2023-08-20T09:34:40;95980.22;;;25.83;100.00
4590;BME280;2307;48.448;9.216;2023-08-20T09:37:09;95985.47;;;25.80;100.00
4590;BME280;2307;48.448;9.216;2023-08-20T09:39:36;95984.81;;;25.83;100.00
4590;BME280;2307;48.448;9.216;2023-08-20T09:42:03;95975.13;;;25.91;100.00
4590;BME280;2307;48.448;9.216;2023-08-20T09:44:32;95982.91;;;25.92;100.00
4590;BME280;2307;48.448;9.216;2023-08-20T09:47:00;95986.41;;;26.01;100.00
4590;BME280;2307;48.448;9.216;2023-08-20T09:49:29;95980.72;;;26.03;100.00
4590;BME280;2307;48.448;9.216;2023-08-20T09:51:56;95985.16;;;26.07;100.00
4590;BME280;2307;48.448;9.216;2023-08-20T09:54:34;95983.91;;;26.22;100.00
4590;BME280;2307;48.448;9.216;2023-08-20T09:57:01;95985.50;;;26.31;100.00
4590;BME280;2307;48.448;9.216;2023-08-20T09:59:29;95986.13;;;26.46;100.00
4590;BME280;2307;48.448;9.216;2023-08-20T10:01:56;95988.66;;;26.59;100.00
4590;BME280;2307;48.448;9.216;2023-08-20T10:04:24;95983.81;;;26.73;100.00
4590;BME280;2307;48.448;9.216;2023-08-20T10:06:51;95983.00;;;26.90;100.00
4590;BME280;2307;48.448;9.216;2023-08-20T10:09:19;95976.94;;;27.02;100.00
4590;BME280;2307;48.448;9.216;2023-08-20T10:11:47;95976.69;;;27.15;100.00
4590;BME280;2307;48.448;9.216;2023-08-20T10:14:14;95977.94;;;27.26;100.00
4590;BME280;2307;48.448;9.216;2023-08-20T10:16:40;95980.00;;;27.29;100.00
4590;BME280;2307;48.448;9.216;2023-08-20T10:19:06;95974.31;;;27.52;100.00
4590;BME280;2307;48.448;9.216;2023-08-20T10:21:34;95973.09;;;27.70;100.00
4590;BME280;2307;48.448;9.216;2023-08-20T10:24:03;95978.84;;;27.89;100.00
4590;BME280;2307;48.448;9.216;2023-08-20T10:26:29;95972.69;;;28.09;100.00
4590;BME280;2307;48.448;9.216;2023-08-20T10:31:37;95974.19;;;28.52;100.00
4590;BME280;2307;48.448;9.216;2023-08-20T10:34:11;95981.81;;;28.58;96.03
4590;BME280;2307;48.448;9.216;2023-08-20T10:36:41;95979.94;;;28.71;90.37
4590;BME280;2307;48.448;9.216;2023-08-20T10:39:20;95977.75;;;29.09;90.42
4590;BME280;2307;48.448;9.216;2023-08-20T10:41:48;95985.19;;;29.57;90.89
4590;BME280;2307;48.448;9.216;2023-08-20T10:44:14;95983.03;;;29.87;85.71
4590;BME280;2307;48.448;9.216;2023-08-20T10:46:49;95981.38;;;30.10;81.35
4590;BME280;2307;48.448;9.216;2023-08-20T10:49:15;95982.94;;;30.51;77.60
4590;BME280;2307;48.448;9.216;2023-08-20T10:51:44;95979.63;;;30.58;73.52
4590;BME280;2307;48.448;9.216;2023-08-20T10:54:13;95989.09;;;30.76;75.83
4590;BME280;2307;48.448;9.216;2023-08-20T10:56:40;95987.19;;;30.92;68.28
4590;BME280;2307;48.448;9.216;2023-08-20T10:59:08;95979.75;;;31.04;67.95
4590;BME280;2307;48.448;9.216;2023-08-20T11:01:34;95983.97;;;31.18;65.49
4590;BME280;2307;48.448;9.216;2023-08-20T11:04:01;95982.91;;;31.38;67.11
4590;BME280;2307;48.448;9.216;2023-08-20T11:06:31;95972.25;;;31.64;64.06
4590;BME280;2307;48.448;9.216;2023-08-20T11:08:59;95980.22;;;31.88;62.43
4590;BME280;2307;48.448;9.216;2023-08-20T11:11:26;95978.06;;;31.97;64.42
4590;BME280;2307;48.448;9.216;2023-08-20T11:13:52;95979.00;;;32.21;62.97
4590;BME280;2307;48.448;9.216;2023-08-20T11:16:18;95981.59;;;32.33;59.36
4590;BME280;2307;48.448;9.216;2023-08-20T11:18:45;95974.75;;;32.61;57.16
4590;BME280;2307;48.448;9.216;2023-08-20T11:21:12;95973.16;;;32.80;58.43
4590;BME280;2307;48.448;9.216;2023-08-20T11:23:39;95973.47;;;32.97;54.09
4590;BME280;2307;48.448;9.216;2023-08-20T11:26:09;95976.22;;;32.97;47.80
4590;BME280;2307;48.448;9.216;2023-08-20T11:28:35;95964.88;;;33.18;49.92
4590;BME280;2307;48.448;9.216;2023-08-20T11:31:02;95972.59;;;33.35;49.48
4590;BME280;2307;48.448;9.216;2023-08-20T11:33:28;95968.75;;;33.40;51.10
4590;BME280;2307;48.448;9.216;2023-08-20T11:35:55;95973.75;;;33.34;50.61
4590;BME280;2307;48.448;9.216;2023-08-20T11:38:23;95965.50;;;33.57;48.24
4590;BME280;2307;48.448;9.216;2023-08-20T11:40:49;95965.88;;;33.82;48.15
4590;BME280;2307;48.448;9.216;2023-08-20T11:43:18;95972.09;;;33.79;47.05
4590;BME280;2307;48.448;9.216;2023-08-20T11:45:45;95965.47;;;34.06;47.22
4590;BME280;2307;48.448;9.216;2023-08-20T11:48:12;95962.56;;;34.25;46.38
4590;BME280;2307;48.448;9.216;2023-08-20T11:50:39;95964.81;;;34.46;45.18
4590;BME280;2307;48.448;9.216;2023-08-20T11:53:06;95955.13;;;34.26;45.20
4590;BME280;2307;48.448;9.216;2023-08-20T11:55:32;95955.13;;;34.26;45.28
4590;BME280;2307;48.448;9.216;2023-08-20T11:57:58;95946.16;;;34.29;44.86
4590;BME280;2307;48.448;9.216;2023-08-20T12:00:27;95944.88;;;34.19;46.38
4590;BME280;2307;48.448;9.216;2023-08-20T12:02:53;95946.97;;;34.29;47.57
4590;BME280;2307;48.448;9.216;2023-08-20T12:05:21;95958.88;;;34.40;45.39
4590;BME280;2307;48.448;9.216;2023-08-20T12:07:58;95947.63;;;34.52;45.27
4590;BME280;2307;48.448;9.216;2023-08-20T12:10:25;95946.59;;;34.31;44.62
4590;BME280;2307;48.448;9.216;2023-08-20T12:12:52;95949.78;;;34.36;44.37
4590;BME280;2307;48.448;9.216;2023-08-20T12:15:19;95946.47;;;34.53;44.42
4590;BME280;2307;48.448;9.216;2023-08-20T12:17:56;95941.91;;;34.64;43.72
4590;BME280;2307;48.448;9.216;2023-08-20T12:20:22;95943.75;;;34.57;45.39
4590;BME280;2307;48.448;9.216;2023-08-20T12:22:49;95939.47;;;34.59;44.59
4590;BME280;2307;48.448;9.216;2023-08-20T12:25:15;95941.53;;;35.06;43.91
4590;BME280;2307;48.448;9.216;2023-08-20T12:27:42;95936.66;;;35.26;42.74
4590;BME280;2307;48.448;9.216;2023-08-20T12:30:08;95935.22;;;35.02;42.81
4590;BME280;2307;48.448;9.216;2023-08-20T12:32:35;95937.81;;;35.25;40.36
4590;BME280;2307;48.448;9.216;2023-08-20T12:35:03;95931.69;;;35.02;42.16
4590;BME280;2307;48.448;9.216;2023-08-20T12:37:30;95928.81;;;35.28;42.84
4590;BME280;2307;48.448;9.216;2023-08-20T12:39:56;95929.16;;;35.27;41.69
4590;BME280;2307;48.448;9.216;2023-08-20T12:42:23;95927.56;;;35.69;39.84
4590;BME280;2307;48.448;9.216;2023-08-20T12:44:49;95921.06;;;36.02;40.45
4590;BME280;2307;48.448;9.216;2023-08-20T12:47:15;95924.31;;;36.15;39.59
4590;BME280;2307;48.448;9.216;2023-08-20T12:49:42;95916.22;;;35.82;40.15
4590;BME280;2307;48.448;9.216;2023-08-20T12:52:10;95914.84;;;36.09;39.74
4590;BME280;2307;48.448;9.216;2023-08-20T12:54:36;95906.97;;;36.07;39.46
4590;BME280;2307;48.448;9.216;2023-08-20T12:57:03;95913.69;;;36.20;39.42
4590;BME280;2307;48.448;9.216;2023-08-20T12:59:29;95897.22;;;36.35;39.55
4590;BME280;2307;48.448;9.216;2023-08-20T13:01:56;95898.78;;;36.32;39.00
4590;BME280;2307;48.448;9.216;2023-08-20T13:04:23;95900.75;;;36.21;38.72
4590;BME280;2307;48.448;9.216;2023-08-20T13:06:50;95901.53;;;36.25;40.09
4590;BME280;2307;48.448;9.216;2023-08-20T13:09:18;95899.97;;;36.24;39.52
4590;BME280;2307;48.448;9.216;2023-08-20T13:11:44;95895.69;;;36.48;38.48
4590;BME280;2307;48.448;9.216;2023-08-20T13:14:13;95891.84;;;36.59;39.01
4590;BME280;2307;48.448;9.216;2023-08-20T13:16:40;95892.25;;;36.68;39.61